createdAt,value
2018-09-24T00:00:58.756Z,2.07
2018-09-24T00:02:02.462Z,2.23
2018-09-24T00:03:06.234Z,2.77
2018-09-24T00:04:11.419Z,2.07
2018-09-24T00:05:15.555Z,2.47
2018-09-24T00:06:19.146Z,2.27
2018-09-24T00:07:22.750Z,2.23
2018-09-24T00:08:26.594Z,2.43
2018-09-24T00:09:30.258Z,2.70
2018-09-24T00:10:33.877Z,2.30
2018-09-24T00:11:37.635Z,2.90
2018-09-24T00:12:41.241Z,2.63
2018-09-24T00:13:44.720Z,2.50
2018-09-24T00:14:48.304Z,2.80
2018-09-24T00:15:53.363Z,2.40
2018-09-24T00:16:56.871Z,2.40
2018-09-24T00:18:00.592Z,2.93
2018-09-24T00:19:04.140Z,2.60
2018-09-24T00:20:07.971Z,2.57
2018-09-24T00:21:11.986Z,2.83
2018-09-24T00:22:15.503Z,2.27
2018-09-24T00:23:19.757Z,2.60
2018-09-24T00:24:23.655Z,2.50
2018-09-24T00:25:27.268Z,2.40
2018-09-24T00:26:30.843Z,2.73
2018-09-24T00:27:34.379Z,2.63
2018-09-24T00:28:38.063Z,2.27
2018-09-24T00:29:41.849Z,2.67
2018-09-24T00:30:45.565Z,2.67
2018-09-24T00:31:49.326Z,2.37
2018-09-24T00:32:53.011Z,2.70
2018-09-24T00:33:56.825Z,2.37
2018-09-24T00:35:00.315Z,2.20
2018-09-24T00:36:04.470Z,2.50
2018-09-24T00:37:07.970Z,2.53
2018-09-24T00:38:12.311Z,2.20
2018-09-24T00:39:15.841Z,2.17
2018-09-24T00:40:19.330Z,1.90
2018-09-24T00:41:23.808Z,2.17
2018-09-24T00:42:28.009Z,2.00
2018-09-24T00:43:31.788Z,2.63
2018-09-24T00:44:35.207Z,2.20
2018-09-24T00:45:38.773Z,2.40
2018-09-24T00:46:42.274Z,2.30
2018-09-24T00:47:45.903Z,2.97
2018-09-24T00:48:49.539Z,2.50
2018-09-24T00:49:53.097Z,2.10
2018-09-24T00:50:56.566Z,3.20
2018-09-24T00:52:00.207Z,2.20
2018-09-24T00:53:03.862Z,2.00
2018-09-24T00:54:08.079Z,2.53
2018-09-24T00:55:11.794Z,2.33
2018-09-24T00:56:16.156Z,2.43
2018-09-24T00:57:20.595Z,2.97
2018-09-24T00:58:24.748Z,2.60
2018-09-24T00:59:28.332Z,2.50
2018-09-24T01:00:32.423Z,2.50
2018-09-24T01:01:35.930Z,2.40
2018-09-24T01:02:39.603Z,3.00
2018-09-24T01:03:43.123Z,2.70
2018-09-24T01:04:47.184Z,3.40
2018-09-24T01:05:50.859Z,2.93
2018-09-24T01:06:54.484Z,2.90
2018-09-24T01:07:58.456Z,2.90
2018-09-24T01:09:02.253Z,3.07
2018-09-24T01:10:06.040Z,2.83
2018-09-24T01:11:10.287Z,3.13
2018-09-24T01:12:14.503Z,2.90
2018-09-24T01:13:18.080Z,2.90
2018-09-24T01:14:21.581Z,3.00
2018-09-24T01:15:25.527Z,2.97
2018-09-24T01:16:28.998Z,3.30
2018-09-24T01:17:32.914Z,2.97
2018-09-24T01:18:36.450Z,3.13
2018-09-24T01:19:40.608Z,2.80
2018-09-24T01:20:44.955Z,2.47
2018-09-24T01:21:48.667Z,3.80
2018-09-24T01:22:52.306Z,3.13
2018-09-24T01:23:56.434Z,3.20
2018-09-24T01:25:00.031Z,4.07
2018-09-24T01:26:03.550Z,2.93
2018-09-24T01:27:07.421Z,3.10
2018-09-24T01:28:11.684Z,2.50
2018-09-24T01:29:15.317Z,2.73
2018-09-24T01:30:18.849Z,3.10
2018-09-24T01:31:22.388Z,2.33
2018-09-24T01:32:25.924Z,2.40
2018-09-24T01:33:29.533Z,2.87
2018-09-24T01:34:33.047Z,2.70
2018-09-24T01:35:37.021Z,2.77
2018-09-24T01:36:40.602Z,2.80
2018-09-24T01:37:44.763Z,2.27
2018-09-24T01:38:48.310Z,2.27
2018-09-24T01:39:52.479Z,2.20
2018-09-24T01:40:55.953Z,2.47
2018-09-24T01:41:59.599Z,2.70
2018-09-24T01:43:04.053Z,2.57
2018-09-24T01:44:09.331Z,2.30
2018-09-24T01:45:12.905Z,2.60
2018-09-24T01:46:16.428Z,3.10
2018-09-24T01:47:19.900Z,2.40
2018-09-24T01:48:23.673Z,2.43
2018-09-24T01:49:27.880Z,2.80
2018-09-24T01:50:31.507Z,2.50
2018-09-24T01:51:37.355Z,3.07
2018-09-24T01:52:41.148Z,2.60
2018-09-24T01:53:44.734Z,3.00
2018-09-24T01:54:48.806Z,2.40
2018-09-24T01:55:53.058Z,2.93
2018-09-24T01:56:56.755Z,2.43
2018-09-24T01:58:00.249Z,2.77
2018-09-24T01:59:03.844Z,3.00
2018-09-24T02:00:07.516Z,2.73
2018-09-24T02:01:11.176Z,2.90
2018-09-24T02:02:14.693Z,1.97
2018-09-24T02:03:18.374Z,3.10
2018-09-24T02:04:21.888Z,2.57
2018-09-24T02:05:25.377Z,2.80
2018-09-24T02:06:28.949Z,2.13
2018-09-24T02:07:33.144Z,2.40
2018-09-24T02:08:42.353Z,2.63
2018-09-24T02:09:46.591Z,2.20
2018-09-24T02:10:50.276Z,1.83
2018-09-24T02:11:53.797Z,2.60
2018-09-24T02:12:58.270Z,3.07
2018-09-24T02:14:01.783Z,2.43
2018-09-24T02:15:05.368Z,2.47
2018-09-24T02:16:10.437Z,2.07
2018-09-24T02:17:17.876Z,2.23
2018-09-24T02:18:21.386Z,2.20
2018-09-24T02:19:24.949Z,2.53
2018-09-24T02:20:28.722Z,2.20
2018-09-24T02:21:32.212Z,2.90
2018-09-24T02:22:35.700Z,2.30
2018-09-24T02:23:39.194Z,2.37
2018-09-24T02:24:42.750Z,2.30
2018-09-24T02:25:46.953Z,2.03
2018-09-24T02:26:50.706Z,2.97
2018-09-24T02:27:54.472Z,2.37
2018-09-24T02:28:58.059Z,2.40
2018-09-24T02:30:01.555Z,2.20
2018-09-24T02:31:05.122Z,2.43
2018-09-24T02:32:08.772Z,2.23
2018-09-24T02:33:13.677Z,2.30
2018-09-24T02:34:17.303Z,2.50
2018-09-24T02:35:20.855Z,2.30
2018-09-24T02:36:24.361Z,2.70
2018-09-24T02:37:27.974Z,2.07
2018-09-24T02:38:38.291Z,2.20
2018-09-24T02:39:42.074Z,2.27
2018-09-24T02:40:45.586Z,2.60
2018-09-24T02:41:53.371Z,2.13
2018-09-24T02:42:56.899Z,2.17
2018-09-24T02:44:01.129Z,2.47
2018-09-24T02:45:04.732Z,2.17
2018-09-24T02:46:08.301Z,2.80
2018-09-24T02:47:12.010Z,2.10
2018-09-24T02:48:15.509Z,2.20
2018-09-24T02:49:19.705Z,2.23
2018-09-24T02:50:32.998Z,1.73
2018-09-24T02:51:36.499Z,2.40
2018-09-24T02:52:40.023Z,2.17
2018-09-24T02:53:43.701Z,2.83
2018-09-24T02:54:47.250Z,2.70
2018-09-24T02:55:51.126Z,2.17
2018-09-24T02:56:54.627Z,2.30
2018-09-24T02:57:58.922Z,2.20
2018-09-24T02:59:02.477Z,2.23
2018-09-24T03:00:06.043Z,2.10
2018-09-24T03:01:09.772Z,2.40
2018-09-24T03:02:13.952Z,2.20
2018-09-24T03:03:18.088Z,2.33
2018-09-24T03:04:21.707Z,2.73
2018-09-24T03:05:25.327Z,2.13
2018-09-24T03:06:35.089Z,2.60
2018-09-24T03:07:38.664Z,1.90
2018-09-24T03:08:42.279Z,2.43
2018-09-24T03:09:46.400Z,2.60
2018-09-24T03:10:50.591Z,2.70
2018-09-24T03:11:54.238Z,2.03
2018-09-24T03:12:57.768Z,3.10
2018-09-24T03:14:01.375Z,1.87
2018-09-24T03:15:05.316Z,2.37
2018-09-24T03:16:09.055Z,1.97
2018-09-24T03:17:17.069Z,2.00
2018-09-24T03:18:20.633Z,2.40
2018-09-24T03:19:24.366Z,1.80
2018-09-24T03:20:28.155Z,2.20
2018-09-24T03:21:31.738Z,2.10
2018-09-24T03:22:35.338Z,2.23
2018-09-24T03:23:38.857Z,2.37
2018-09-24T03:24:43.126Z,1.90
2018-09-24T03:25:47.399Z,2.23
2018-09-24T03:26:50.987Z,1.83
2018-09-24T03:27:54.637Z,2.17
2018-09-24T03:28:58.167Z,2.20
2018-09-24T03:30:01.652Z,2.07
2018-09-24T03:31:05.154Z,1.97
2018-09-24T03:32:08.700Z,2.33
2018-09-24T03:33:12.329Z,2.37
2018-09-24T03:34:17.998Z,2.23
2018-09-24T03:35:21.544Z,2.10
2018-09-24T03:36:25.046Z,2.07
2018-09-24T03:37:28.513Z,2.27
2018-09-24T03:38:32.092Z,2.17
2018-09-24T03:39:35.967Z,2.23
2018-09-24T03:40:39.484Z,2.47
2018-09-24T03:41:43.386Z,2.00
2018-09-24T03:42:46.950Z,2.87
2018-09-24T03:43:50.700Z,2.47
2018-09-24T03:44:54.212Z,2.30
2018-09-24T03:45:57.784Z,2.10
2018-09-24T03:47:02.278Z,2.10
2018-09-24T03:48:06.462Z,2.10
2018-09-24T03:49:11.259Z,2.47
2018-09-24T03:50:15.390Z,3.10
2018-09-24T03:51:18.988Z,2.40
2018-09-24T03:52:22.620Z,2.30
2018-09-24T03:53:26.164Z,3.10
2018-09-24T03:54:29.664Z,2.63
2018-09-24T03:55:33.232Z,2.30
2018-09-24T03:56:36.750Z,2.13
2018-09-24T03:57:40.727Z,2.37
2018-09-24T03:58:44.374Z,2.07
2018-09-24T03:59:48.104Z,2.50
2018-09-24T04:00:52.177Z,2.40
2018-09-24T04:01:55.725Z,2.70
2018-09-24T04:02:59.275Z,3.23
2018-09-24T04:04:08.114Z,2.27
2018-09-24T04:05:17.016Z,2.43
2018-09-24T04:06:25.791Z,2.20
2018-09-24T04:07:34.503Z,3.00
2018-09-24T04:08:43.288Z,2.13
2018-09-24T04:09:52.882Z,2.10
2018-09-24T04:11:01.793Z,2.10
2018-09-24T04:12:11.164Z,2.13
2018-09-24T04:13:20.172Z,2.57
2018-09-24T04:14:29.753Z,2.80
2018-09-24T04:15:38.603Z,3.47
2018-09-24T04:16:48.212Z,2.00
2018-09-24T04:17:57.207Z,2.60
2018-09-24T04:19:06.201Z,2.20
2018-09-24T04:20:15.368Z,2.00
2018-09-24T04:21:24.481Z,2.53
2018-09-24T04:22:34.802Z,1.77
2018-09-24T04:23:43.796Z,2.10
2018-09-24T04:24:52.730Z,2.40
2018-09-24T04:26:01.764Z,2.37
2018-09-24T04:27:11.702Z,1.97
2018-09-24T04:28:20.707Z,2.10
2018-09-24T04:29:29.547Z,2.67
2018-09-24T04:30:38.475Z,1.87
2018-09-24T04:31:47.386Z,1.90
2018-09-24T04:32:56.502Z,2.00
2018-09-24T04:34:05.425Z,2.27
2018-09-24T04:35:14.382Z,2.40
2018-09-24T04:36:23.290Z,2.27
2018-09-24T04:37:32.275Z,2.43
2018-09-24T04:38:41.960Z,1.97
2018-09-24T04:39:51.137Z,2.00
2018-09-24T04:41:00.088Z,2.10
2018-09-24T04:42:09.218Z,2.23
2018-09-24T04:43:20.048Z,2.13
2018-09-24T04:44:30.406Z,2.27
2018-09-24T04:45:39.483Z,2.37
2018-09-24T04:46:49.646Z,2.10
2018-09-24T04:47:58.730Z,2.47
2018-09-24T04:49:07.582Z,2.20
2018-09-24T04:50:16.462Z,2.00
2018-09-24T04:51:26.121Z,2.03
2018-09-24T04:52:35.790Z,2.03
2018-09-24T04:53:44.700Z,2.30
2018-09-24T04:54:54.311Z,2.43
2018-09-24T04:56:04.009Z,2.43
2018-09-24T04:57:13.699Z,2.10
2018-09-24T04:58:23.291Z,2.20
2018-09-24T04:59:32.778Z,2.70
2018-09-24T05:00:41.684Z,2.57
2018-09-24T05:01:50.757Z,2.50
2018-09-24T05:02:59.841Z,2.10
2018-09-24T05:04:08.972Z,2.20
2018-09-24T05:05:19.255Z,2.13
2018-09-24T05:06:29.115Z,2.10
2018-09-24T05:07:37.987Z,2.73
2018-09-24T05:08:47.031Z,2.30
2018-09-24T05:09:56.184Z,2.03
2018-09-24T05:11:05.767Z,1.90
2018-09-24T05:12:15.756Z,2.73
2018-09-24T05:13:25.555Z,2.77
2018-09-24T05:14:35.315Z,2.43
2018-09-24T05:15:44.762Z,2.23
2018-09-24T05:16:54.337Z,2.30
2018-09-24T05:18:03.273Z,2.23
2018-09-24T05:19:12.281Z,2.30
2018-09-24T05:20:21.176Z,2.50
2018-09-24T05:21:30.259Z,2.20
2018-09-24T05:22:39.927Z,2.10
2018-09-24T05:23:48.882Z,2.33
2018-09-24T05:24:57.903Z,1.90
2018-09-24T05:26:07.603Z,2.00
2018-09-24T05:27:17.504Z,2.67
2018-09-24T05:28:26.357Z,2.30
2018-09-24T05:29:35.224Z,2.30
2018-09-24T05:30:44.649Z,2.60
2018-09-24T05:31:53.680Z,2.63
2018-09-24T05:33:03.333Z,2.57
2018-09-24T05:34:13.301Z,2.43
2018-09-24T05:35:23.220Z,2.07
2018-09-24T05:36:32.101Z,2.90
2018-09-24T05:37:41.196Z,2.30
2018-09-24T05:38:50.790Z,2.53
2018-09-24T05:39:59.801Z,2.17
2018-09-24T05:41:08.879Z,2.43
2018-09-24T05:42:18.002Z,2.47
2018-09-24T05:43:30.379Z,2.47
2018-09-24T05:44:40.818Z,2.77
2018-09-24T05:45:50.444Z,3.00
2018-09-24T05:46:59.840Z,2.40
2018-09-24T05:48:08.757Z,2.20
2018-09-24T05:49:17.814Z,2.20
2018-09-24T05:50:26.701Z,2.30
2018-09-24T05:51:35.521Z,2.63
2018-09-24T05:52:44.310Z,2.80
2018-09-24T05:53:53.340Z,2.13
2018-09-24T05:55:02.228Z,2.37
2018-09-24T05:56:11.181Z,2.37
2018-09-24T05:57:20.145Z,2.20
2018-09-24T05:58:29.091Z,2.40
2018-09-24T05:59:38.073Z,2.30
2018-09-24T06:00:46.821Z,2.30
2018-09-24T06:01:55.808Z,2.30
2018-09-24T06:03:04.609Z,2.80
2018-09-24T06:04:13.548Z,2.40
2018-09-24T06:05:22.366Z,2.43
2018-09-24T06:06:31.339Z,2.80
2018-09-24T06:07:40.168Z,2.60
2018-09-24T06:08:49.037Z,2.63
2018-09-24T06:09:58.050Z,3.23
2018-09-24T06:11:06.807Z,2.87
2018-09-24T06:12:15.874Z,3.30
2018-09-24T06:13:24.749Z,2.70
2018-09-24T06:14:34.714Z,2.73
2018-09-24T06:15:43.654Z,2.57
2018-09-24T06:16:52.936Z,2.60
2018-09-24T06:18:02.072Z,2.20
2018-09-24T06:19:11.342Z,2.93
2018-09-24T06:20:20.027Z,2.03
2018-09-24T06:21:29.210Z,3.00
2018-09-24T06:22:38.304Z,2.40
2018-09-24T06:23:47.294Z,2.40
2018-09-24T06:24:56.167Z,2.27
2018-09-24T06:26:04.854Z,2.17
2018-09-24T06:27:13.523Z,2.60
2018-09-24T06:28:22.900Z,1.70
2018-09-24T06:29:31.647Z,2.03
2018-09-24T06:30:40.390Z,2.57
2018-09-24T06:31:49.302Z,1.80
2018-09-24T06:32:58.243Z,5.53
2018-09-24T06:34:08.546Z,3.50
2018-09-24T06:35:17.503Z,1.90
2018-09-24T06:36:26.373Z,2.23
2018-09-24T06:37:35.165Z,1.80
2018-09-24T06:38:44.523Z,2.07
2018-09-24T06:39:53.324Z,1.93
2018-09-24T06:41:02.052Z,1.77
2018-09-24T06:42:11.519Z,2.23
2018-09-24T06:43:20.392Z,1.70
2018-09-24T06:44:29.377Z,1.82
2018-09-24T06:45:38.329Z,1.83
2018-09-24T06:46:47.198Z,1.57
2018-09-24T06:47:55.891Z,2.12
2018-09-24T06:49:04.836Z,1.65
2018-09-24T06:50:13.662Z,1.70
2018-09-24T06:51:22.501Z,1.37
2018-09-24T06:52:31.403Z,1.25
2018-09-24T06:53:40.311Z,1.40
2018-09-24T06:54:49.068Z,1.27
2018-09-24T06:55:57.855Z,1.42
2018-09-24T06:57:06.682Z,1.27
2018-09-24T06:58:15.564Z,1.52
2018-09-24T06:59:24.498Z,1.30
2018-09-24T07:00:34.528Z,1.30
2018-09-24T07:01:43.316Z,2.27
2018-09-24T07:02:52.089Z,1.50
2018-09-24T07:04:00.879Z,1.50
2018-09-24T07:05:09.659Z,1.70
2018-09-24T07:06:18.587Z,1.17
2018-09-24T07:07:27.438Z,2.22
2018-09-24T07:08:36.224Z,1.40
2018-09-24T07:09:45.077Z,2.42
2018-09-24T07:10:54.036Z,1.10
2018-09-24T07:12:02.930Z,1.25
2018-09-24T07:13:11.734Z,1.47
2018-09-24T07:14:20.695Z,1.40
2018-09-24T07:15:29.703Z,1.62
2018-09-24T07:16:38.738Z,1.37
2018-09-24T07:17:47.660Z,1.60
2018-09-24T07:18:56.316Z,1.65
2018-09-24T07:20:05.279Z,1.17
2018-09-24T07:21:14.123Z,1.20
2018-09-24T07:22:22.962Z,1.07
2018-09-24T07:23:31.859Z,1.27
2018-09-24T07:24:40.597Z,1.40
2018-09-24T07:25:49.533Z,1.17
2018-09-24T07:26:58.379Z,1.20
2018-09-24T07:28:07.494Z,0.93
2018-09-24T07:29:16.245Z,1.60
2018-09-24T07:30:25.053Z,1.80
2018-09-24T07:31:34.023Z,1.55
2018-09-24T07:32:42.896Z,1.40
2018-09-24T07:33:51.747Z,1.35
2018-09-24T07:35:01.306Z,1.55
2018-09-24T07:36:10.428Z,1.22
2018-09-24T07:37:19.829Z,0.93
2018-09-24T07:38:29.272Z,1.00
2018-09-24T07:39:38.044Z,1.30
2018-09-24T07:40:46.869Z,1.20
2018-09-24T07:41:55.666Z,1.32
2018-09-24T07:43:04.674Z,1.77
2018-09-24T07:44:13.495Z,1.40
2018-09-24T07:45:22.841Z,1.00
2018-09-24T07:46:31.784Z,1.62
2018-09-24T07:47:40.686Z,1.37
2018-09-24T07:48:49.675Z,1.57
2018-09-24T07:49:58.515Z,1.50
2018-09-24T07:51:07.287Z,0.98
2018-09-24T07:52:17.246Z,1.65
2018-09-24T07:53:26.125Z,1.30
2018-09-24T07:54:35.042Z,1.42
2018-09-24T07:55:44.020Z,1.40
2018-09-24T07:56:52.986Z,1.15
2018-09-24T07:58:01.745Z,1.37
2018-09-24T07:59:10.552Z,1.10
2018-09-24T08:00:19.550Z,1.17
2018-09-24T08:01:28.370Z,1.15
2018-09-24T08:02:37.160Z,1.60
2018-09-24T08:03:45.901Z,1.00
2018-09-24T08:04:54.822Z,0.93
2018-09-24T08:06:03.825Z,1.20
2018-09-24T08:07:12.882Z,1.27
2018-09-24T08:08:21.752Z,1.90
2018-09-24T08:09:31.289Z,1.47
2018-09-24T08:10:40.127Z,1.30
2018-09-24T08:11:49.721Z,1.15
2018-09-24T08:12:58.907Z,1.27
2018-09-24T08:14:07.789Z,1.45
2018-09-24T08:15:16.668Z,1.20
2018-09-24T08:16:25.461Z,1.17
2018-09-24T08:17:34.504Z,1.27
2018-09-24T08:18:43.351Z,1.37
2018-09-24T08:19:52.923Z,1.10
2018-09-24T08:21:01.842Z,0.80
2018-09-24T08:22:11.309Z,1.00
2018-09-24T08:23:20.880Z,1.57
2018-09-24T08:24:29.808Z,1.37
2018-09-24T08:25:38.612Z,1.07
2018-09-24T08:26:47.757Z,1.20
2018-09-24T08:27:57.353Z,0.90
2018-09-24T08:29:06.451Z,1.15
2018-09-24T08:30:15.296Z,1.15
2018-09-24T08:31:24.274Z,1.77
2018-09-24T08:32:33.180Z,1.27
2018-09-24T08:33:41.936Z,1.12
2018-09-24T08:34:51.007Z,1.22
2018-09-24T08:35:59.934Z,1.42
2018-09-24T08:37:08.807Z,1.37
2018-09-24T08:38:17.801Z,1.60
2018-09-24T08:39:26.639Z,1.27
2018-09-24T08:40:35.403Z,1.10
2018-09-24T08:41:44.226Z,1.98
2018-09-24T08:42:53.048Z,1.27
2018-09-24T08:44:02.671Z,1.30
2018-09-24T08:45:11.976Z,1.02
2018-09-24T08:46:21.064Z,1.20
2018-09-24T08:47:30.026Z,1.32
2018-09-24T08:48:39.098Z,1.20
2018-09-24T08:49:48.084Z,1.25
2018-09-24T08:50:57.527Z,1.32
2018-09-24T08:52:07.641Z,1.10
2018-09-24T08:53:16.506Z,1.32
2018-09-24T08:54:25.239Z,1.00
2018-09-24T08:55:34.050Z,1.37
2018-09-24T08:56:43.050Z,1.17
2018-09-24T08:57:52.433Z,1.60
2018-09-24T08:59:01.087Z,1.20
2018-09-24T09:00:10.424Z,0.90
2018-09-24T09:01:19.715Z,1.05
2018-09-24T09:02:28.533Z,0.70
2018-09-24T09:03:37.958Z,0.93
2018-09-24T09:04:46.864Z,1.30
2018-09-24T09:05:55.600Z,0.80
2018-09-24T09:07:04.312Z,0.75
2018-09-24T09:08:13.313Z,0.98
2018-09-24T09:09:22.100Z,0.75
2018-09-24T09:10:31.619Z,1.00
2018-09-24T09:11:40.596Z,0.95
2018-09-24T09:12:49.950Z,0.95
2018-09-24T09:13:58.743Z,0.95
2018-09-24T09:15:07.718Z,1.45
2018-09-24T09:16:16.498Z,0.60
2018-09-24T09:17:25.364Z,1.17
2018-09-24T09:18:34.182Z,1.02
2018-09-24T09:19:42.998Z,0.75
2018-09-24T09:20:51.700Z,0.93
2018-09-24T09:22:00.496Z,0.90
2018-09-24T09:23:09.491Z,1.10
2018-09-24T09:24:18.831Z,1.10
2018-09-24T09:25:27.731Z,0.70
2018-09-24T09:26:36.532Z,1.00
2018-09-24T09:27:46.138Z,0.98
2018-09-24T09:28:54.908Z,0.60
2018-09-24T09:30:03.858Z,0.75
2018-09-24T09:31:13.976Z,0.80
2018-09-24T09:32:23.493Z,0.70
2018-09-24T09:33:32.496Z,0.70
2018-09-24T09:34:41.435Z,0.93
2018-09-24T09:35:50.231Z,0.85
2018-09-24T09:36:59.109Z,1.27
2018-09-24T09:38:08.007Z,0.70
2018-09-24T09:39:17.527Z,0.88
2018-09-24T09:40:26.443Z,1.00
2018-09-24T09:41:35.386Z,0.90
2018-09-24T09:42:44.321Z,0.60
2018-09-24T09:43:53.318Z,0.80
2018-09-24T09:45:02.074Z,0.98
2018-09-24T09:46:10.920Z,0.70
2018-09-24T09:47:19.850Z,0.70
2018-09-24T09:48:28.636Z,0.53
2018-09-24T09:49:37.509Z,1.00
2018-09-24T09:50:46.377Z,1.22
2018-09-24T09:51:55.305Z,0.85
2018-09-24T09:53:04.278Z,1.10
2018-09-24T09:54:14.444Z,0.90
2018-09-24T09:55:23.383Z,0.80
2018-09-24T09:56:32.393Z,1.47
2018-09-24T09:57:41.388Z,0.55
2018-09-24T09:58:50.238Z,0.80
2018-09-24T09:59:58.986Z,1.00
2018-09-24T10:01:07.945Z,0.88
2018-09-24T10:02:16.862Z,0.60
2018-09-24T10:03:25.574Z,1.05
2018-09-24T10:04:34.471Z,0.80
2018-09-24T10:05:43.262Z,0.82
2018-09-24T10:06:52.216Z,0.98
2018-09-24T10:08:01.282Z,0.70
2018-09-24T10:09:12.437Z,0.80
2018-09-24T10:10:21.360Z,1.00
2018-09-24T10:11:30.209Z,0.68
2018-09-24T10:12:38.990Z,0.80
2018-09-24T10:13:48.634Z,0.78
2018-09-24T10:14:57.452Z,0.90
2018-09-24T10:16:06.526Z,0.90
2018-09-24T10:17:15.528Z,1.00
2018-09-24T10:18:24.399Z,0.90
2018-09-24T10:19:33.388Z,0.72
2018-09-24T10:20:42.401Z,0.75
2018-09-24T10:21:51.281Z,0.75
2018-09-24T10:23:01.423Z,0.95
2018-09-24T10:24:10.850Z,0.65
2018-09-24T10:25:19.623Z,1.00
2018-09-24T10:26:29.355Z,0.90
2018-09-24T10:27:38.530Z,0.93
2018-09-24T10:28:47.390Z,0.93
2018-09-24T10:29:58.784Z,0.80
2018-09-24T10:31:07.784Z,1.60
2018-09-24T10:32:16.902Z,1.90
2018-09-24T10:33:25.820Z,0.80
2018-09-24T10:34:34.602Z,0.80
2018-09-24T10:35:43.583Z,0.90
2018-09-24T10:36:52.660Z,0.50
2018-09-24T10:38:01.626Z,0.70
2018-09-24T10:39:13.729Z,0.60
2018-09-24T10:40:22.622Z,0.70
2018-09-24T10:41:31.632Z,1.15
2018-09-24T10:42:40.415Z,0.57
2018-09-24T10:43:49.384Z,0.65
2018-09-24T10:44:59.624Z,0.50
2018-09-24T10:46:09.818Z,0.80
2018-09-24T10:47:19.416Z,0.70
2018-09-24T10:48:28.980Z,0.80
2018-09-24T10:49:37.995Z,0.80
2018-09-24T10:50:46.973Z,0.90
2018-09-24T10:51:55.877Z,0.80
2018-09-24T10:53:04.765Z,0.90
2018-09-24T10:54:14.583Z,0.70
2018-09-24T10:55:24.027Z,0.80
2018-09-24T10:56:33.585Z,0.70
2018-09-24T10:57:43.167Z,0.75
2018-09-24T10:58:52.071Z,0.90
2018-09-24T11:00:02.122Z,0.60
2018-09-24T11:01:10.980Z,0.50
2018-09-24T11:02:19.870Z,0.90
2018-09-24T11:03:28.914Z,0.60
2018-09-24T11:04:37.824Z,0.62
2018-09-24T11:05:46.738Z,0.72
2018-09-24T11:06:55.652Z,0.72
2018-09-24T11:08:04.457Z,0.60
2018-09-24T11:09:14.153Z,0.95
2018-09-24T11:10:23.150Z,0.50
2018-09-24T11:11:32.035Z,1.50
2018-09-24T11:12:41.202Z,0.70
2018-09-24T11:13:50.066Z,0.60
2018-09-24T11:14:59.699Z,0.60
2018-09-24T11:16:08.840Z,0.80
2018-09-24T11:17:17.898Z,0.40
2018-09-24T11:18:26.615Z,0.95
2018-09-24T11:19:35.430Z,1.17
2018-09-24T11:20:44.160Z,0.80
2018-09-24T11:21:53.061Z,0.70
2018-09-24T11:23:02.032Z,0.50
2018-09-24T11:24:10.804Z,0.60
2018-09-24T11:25:19.952Z,0.40
2018-09-24T11:27:37.923Z,0.65
2018-09-24T11:28:46.904Z,0.57
2018-09-24T11:29:55.670Z,0.53
2018-09-24T11:31:05.007Z,0.80
2018-09-24T11:32:14.097Z,0.60
2018-09-24T11:33:23.488Z,0.65
2018-09-24T11:34:32.237Z,0.68
2018-09-24T11:35:41.299Z,0.80
2018-09-24T11:36:50.232Z,1.27
2018-09-24T11:37:59.647Z,0.80
2018-09-24T11:39:08.603Z,0.90
2018-09-24T11:40:17.408Z,0.68
2018-09-24T11:41:26.086Z,0.75
2018-09-24T11:42:35.023Z,0.62
2018-09-24T11:43:43.849Z,0.60
2018-09-24T11:44:52.684Z,0.65
2018-09-24T11:46:01.414Z,0.60
2018-09-24T11:47:11.309Z,0.85
2018-09-24T11:48:20.084Z,0.62
2018-09-24T11:49:29.006Z,0.50
2018-09-24T11:50:37.884Z,0.60
2018-09-24T11:51:46.664Z,0.60
2018-09-24T11:52:55.616Z,0.57
2018-09-24T11:54:04.908Z,0.98
2018-09-24T11:55:13.683Z,0.95
2018-09-24T11:56:22.962Z,0.95
2018-09-24T11:57:31.935Z,0.88
2018-09-24T11:58:40.787Z,0.60
2018-09-24T11:59:49.571Z,0.65
2018-09-24T12:00:58.730Z,0.78
2018-09-24T12:02:07.571Z,0.90
2018-09-24T12:03:16.394Z,0.72
2018-09-24T12:04:25.310Z,0.90
2018-09-24T12:05:34.019Z,0.60
2018-09-24T12:06:43.036Z,0.75
2018-09-24T12:07:51.843Z,0.70
2018-09-24T12:09:00.662Z,1.10
2018-09-24T12:10:09.711Z,0.80
2018-09-24T12:11:18.626Z,0.70
2018-09-24T12:12:28.003Z,0.55
2018-09-24T12:13:36.746Z,1.07
2018-09-24T12:14:46.252Z,0.60
2018-09-24T12:15:55.631Z,0.70
2018-09-24T12:17:06.541Z,0.80
2018-09-24T12:18:16.327Z,0.78
2018-09-24T12:19:25.225Z,0.88
2018-09-24T12:20:34.249Z,0.70
2018-09-24T12:21:43.178Z,0.55
2018-09-24T12:22:52.080Z,0.60
2018-09-24T12:24:01.033Z,1.25
2018-09-24T12:25:10.003Z,0.75
2018-09-24T12:26:19.858Z,0.80
2018-09-24T12:27:29.202Z,1.22
2018-09-24T12:28:38.810Z,0.70
2018-09-24T12:29:47.767Z,1.05
2018-09-24T12:30:57.290Z,0.70
2018-09-24T12:32:06.294Z,1.55
2018-09-24T12:33:15.119Z,0.62
2018-09-24T12:34:24.055Z,0.80
2018-09-24T12:35:33.002Z,0.90
2018-09-24T12:36:41.726Z,0.80
2018-09-24T12:37:50.576Z,0.50
2018-09-24T12:38:59.498Z,1.12
2018-09-24T12:40:08.958Z,1.00
2018-09-24T12:41:18.160Z,0.98
2018-09-24T12:42:27.027Z,1.30
2018-09-24T12:43:35.821Z,0.80
2018-09-24T12:44:44.547Z,0.60
2018-09-24T12:45:54.079Z,0.88
2018-09-24T12:47:03.028Z,0.98
2018-09-24T12:48:13.429Z,0.75
2018-09-24T12:49:22.495Z,0.80
2018-09-24T12:50:31.423Z,0.80
2018-09-24T12:51:40.231Z,0.70
2018-09-24T12:52:49.195Z,1.00
2018-09-24T12:53:58.145Z,1.72
2018-09-24T12:55:06.833Z,1.80
2018-09-24T12:56:15.512Z,0.70
2018-09-24T12:57:24.446Z,1.50
2018-09-24T12:58:33.328Z,0.93
2018-09-24T12:59:42.101Z,1.37
2018-09-24T13:00:51.044Z,0.65
2018-09-24T13:02:00.250Z,0.98
2018-09-24T13:03:09.030Z,0.72
2018-09-24T13:04:17.990Z,0.88
2018-09-24T13:05:26.914Z,1.15
2018-09-24T13:06:35.940Z,0.80
2018-09-24T13:07:44.905Z,0.70
2018-09-24T13:08:54.671Z,0.75
2018-09-24T13:10:03.535Z,0.80
2018-09-24T13:11:12.703Z,0.80
2018-09-24T13:12:21.708Z,1.07
2018-09-24T13:13:30.615Z,0.98
2018-09-24T13:14:39.544Z,0.80
2018-09-24T13:15:49.381Z,0.88
2018-09-24T13:16:58.277Z,0.80
2018-09-24T13:18:07.073Z,0.95
2018-09-24T13:19:15.828Z,0.70
2018-09-24T13:20:24.680Z,1.20
2018-09-24T13:21:33.627Z,0.75
2018-09-24T13:22:43.302Z,0.70
2018-09-24T13:23:52.156Z,1.02
2018-09-24T13:25:00.943Z,0.88
2018-09-24T13:26:09.696Z,1.02
2018-09-24T13:27:18.577Z,0.95
2018-09-24T13:28:27.477Z,1.10
2018-09-24T13:29:36.293Z,0.70
2018-09-24T13:30:45.200Z,1.00
2018-09-24T13:31:53.922Z,1.17
2018-09-24T13:33:03.830Z,0.82
2018-09-24T13:34:12.723Z,0.78
2018-09-24T13:35:21.348Z,0.70
2018-09-24T13:36:30.049Z,0.78
2018-09-24T13:37:39.085Z,0.65
2018-09-24T13:38:49.148Z,0.85
2018-09-24T13:39:58.015Z,0.80
2018-09-24T13:41:06.987Z,1.10
2018-09-24T13:42:16.420Z,0.60
2018-09-24T13:43:25.197Z,0.90
2018-09-24T13:44:41.044Z,0.75
2018-09-24T13:45:49.811Z,1.25
2018-09-24T13:46:58.826Z,0.80
2018-09-24T13:48:07.693Z,0.68
2018-09-24T13:49:16.955Z,0.88
2018-09-24T13:50:25.857Z,1.00
2018-09-24T13:51:35.271Z,0.93
2018-09-24T13:52:44.083Z,1.02
2018-09-24T13:53:53.031Z,1.00
2018-09-24T13:55:01.923Z,1.02
2018-09-24T13:56:10.695Z,1.42
2018-09-24T13:57:19.877Z,0.75
2018-09-24T13:58:28.591Z,1.05
2018-09-24T13:59:37.711Z,1.02
2018-09-24T14:00:47.298Z,0.80
2018-09-24T14:01:56.248Z,0.72
2018-09-24T14:03:05.351Z,0.98
2018-09-24T14:04:14.208Z,0.75
2018-09-24T14:05:23.016Z,0.70
2018-09-24T14:06:32.437Z,0.90
2018-09-24T14:07:41.329Z,1.12
2018-09-24T14:08:50.122Z,1.00
2018-09-24T14:09:58.806Z,0.90
2018-09-24T14:11:07.647Z,1.00
2018-09-24T14:12:16.595Z,0.98
2018-09-24T14:13:25.535Z,1.22
2018-09-24T14:14:34.664Z,0.90
2018-09-24T14:15:43.764Z,0.70
2018-09-24T14:16:52.622Z,0.78
2018-09-24T14:18:01.920Z,1.15
2018-09-24T14:19:11.705Z,1.12
2018-09-24T14:20:21.342Z,0.88
2018-09-24T14:21:31.116Z,0.70
2018-09-24T14:22:39.831Z,0.90
2018-09-24T14:23:48.783Z,1.62
2018-09-24T14:24:57.627Z,0.80
2018-09-24T14:26:06.848Z,0.75
2018-09-24T14:27:15.721Z,0.80
2018-09-24T14:28:24.379Z,0.82
2018-09-24T14:29:33.224Z,0.70
2018-09-24T14:30:41.984Z,1.05
2018-09-24T14:31:50.767Z,1.02
2018-09-24T14:32:59.610Z,0.93
2018-09-24T14:34:08.559Z,0.72
2018-09-24T14:35:17.343Z,0.62
2018-09-24T14:36:26.338Z,0.62
2018-09-24T14:37:35.819Z,0.70
2018-09-24T14:38:44.581Z,1.22
2018-09-24T14:45:46.860Z,0.95
2018-09-24T14:46:55.861Z,0.62
2018-09-24T14:48:04.947Z,0.55
2018-09-24T14:49:13.811Z,1.27
2018-09-24T14:50:23.234Z,1.10
2018-09-24T14:51:32.009Z,0.62
2018-09-24T14:52:40.996Z,0.70
2018-09-24T14:53:49.812Z,0.85
2018-09-24T14:54:58.738Z,0.80
2018-09-24T14:56:07.966Z,0.82
2018-09-24T14:57:17.231Z,0.65
2018-09-24T14:58:26.235Z,0.90
2018-09-24T14:59:35.172Z,0.90
2018-09-24T15:00:44.031Z,1.10
2018-09-24T15:01:52.925Z,0.80
2018-09-24T15:03:01.851Z,0.88
2018-09-24T15:04:10.824Z,1.00
2018-09-24T15:05:20.061Z,0.82
2018-09-24T15:06:29.016Z,1.20
2018-09-24T15:07:37.992Z,1.27